createdAt,value
2017-09-09T00:02:07.719Z,2.90
2017-09-09T00:04:36.738Z,2.77
2017-09-09T00:07:04.966Z,2.90
2017-09-09T00:09:33.199Z,2.53
2017-09-09T00:12:01.532Z,3.40
2017-09-09T00:14:29.750Z,3.33
2017-09-09T00:16:57.982Z,2.40
2017-09-09T00:19:26.246Z,3.10
2017-09-09T00:21:54.478Z,2.80
2017-09-09T00:24:22.713Z,2.57
2017-09-09T00:26:51.717Z,2.53
2017-09-09T00:29:20.735Z,2.80
2017-09-09T00:31:48.986Z,2.90
2017-09-09T00:34:17.989Z,3.20
2017-09-09T00:36:46.991Z,2.70
2017-09-09T00:39:16.073Z,2.67
2017-09-09T00:41:45.080Z,2.43
2017-09-09T00:44:13.338Z,2.53
2017-09-09T00:46:41.565Z,2.67
2017-09-09T00:49:09.799Z,2.30
2017-09-09T00:51:38.056Z,2.77
2017-09-09T00:54:06.280Z,2.93
2017-09-09T00:56:34.527Z,3.10
2017-09-09T00:59:02.752Z,3.20
2017-09-09T01:01:30.994Z,2.70
2017-09-09T01:03:59.229Z,2.80
2017-09-09T01:06:27.470Z,2.63
2017-09-09T01:08:55.694Z,2.90
2017-09-09T01:11:23.944Z,2.60
2017-09-09T01:13:52.170Z,3.03
2017-09-09T01:16:20.412Z,2.70
2017-09-09T01:18:49.405Z,3.00
2017-09-09T01:21:18.432Z,2.97
2017-09-09T01:23:46.665Z,2.50
2017-09-09T01:26:14.906Z,3.00
2017-09-09T01:28:43.134Z,2.73
2017-09-09T01:31:12.147Z,2.77
2017-09-09T01:33:40.384Z,2.70
2017-09-09T01:36:08.632Z,3.30
2017-09-09T01:38:36.866Z,2.90
2017-09-09T01:41:05.129Z,2.50
2017-09-09T01:43:33.348Z,2.50
2017-09-09T01:46:01.588Z,2.47
2017-09-09T01:48:29.818Z,3.20
2017-09-09T01:50:58.050Z,2.47
2017-09-09T01:53:26.292Z,2.70
2017-09-09T01:55:55.280Z,3.03
2017-09-09T01:58:23.525Z,2.90
2017-09-09T02:00:51.750Z,2.90
2017-09-09T02:03:20.769Z,2.80
2017-09-09T02:05:48.990Z,3.50
2017-09-09T02:08:17.228Z,2.90
2017-09-09T02:10:45.464Z,3.20
2017-09-09T02:13:14.478Z,3.03
2017-09-09T02:15:42.703Z,3.10
2017-09-09T02:18:10.949Z,2.90
2017-09-09T02:20:39.181Z,2.60
2017-09-09T02:23:08.194Z,3.10
2017-09-09T02:25:36.425Z,3.00
2017-09-09T02:28:04.874Z,2.97
2017-09-09T02:30:33.120Z,2.67
2017-09-09T02:33:01.371Z,2.57
2017-09-09T02:35:29.602Z,2.40
2017-09-09T02:37:57.853Z,3.43
2017-09-09T02:40:26.092Z,3.53
2017-09-09T02:42:54.323Z,2.80
2017-09-09T02:45:22.553Z,3.50
2017-09-09T02:47:51.570Z,2.83
2017-09-09T02:50:19.799Z,2.20
2017-09-09T02:52:48.042Z,2.67
2017-09-09T02:55:16.269Z,3.00
2017-09-09T02:57:44.521Z,2.30
2017-09-09T03:00:12.839Z,3.27
2017-09-09T03:02:41.039Z,4.27
2017-09-09T03:05:09.281Z,2.70
2017-09-09T03:07:38.277Z,3.70
2017-09-09T03:10:07.322Z,2.70
2017-09-09T03:12:35.554Z,3.10
2017-09-09T03:15:04.561Z,2.97
2017-09-09T03:17:32.799Z,3.07
2017-09-09T03:20:01.044Z,2.43
2017-09-09T03:22:29.272Z,3.23
2017-09-09T03:24:58.281Z,3.17
2017-09-09T03:27:26.514Z,2.80
2017-09-09T03:29:54.751Z,2.83
2017-09-09T03:32:22.985Z,2.87
2017-09-09T03:34:51.989Z,2.77
2017-09-09T03:37:20.214Z,2.70
2017-09-09T03:39:48.458Z,2.60
2017-09-09T03:42:16.681Z,3.03
2017-09-09T03:44:44.920Z,2.57
2017-09-09T03:47:13.157Z,2.03
2017-09-09T03:49:41.405Z,2.73
2017-09-09T03:52:09.630Z,2.40
2017-09-09T03:54:37.877Z,2.70
2017-09-09T03:57:06.875Z,3.07
2017-09-09T03:59:35.894Z,3.30
2017-09-09T04:02:04.122Z,3.00
2017-09-09T04:04:32.349Z,2.87
2017-09-09T04:07:00.609Z,3.60
2017-09-09T04:09:28.832Z,3.57
2017-09-09T04:11:57.100Z,3.20
2017-09-09T04:14:25.330Z,3.17
2017-09-09T04:16:54.337Z,3.43
2017-09-09T04:19:22.560Z,3.90
2017-09-09T04:21:50.805Z,3.70
2017-09-09T04:24:19.817Z,3.80
2017-09-09T04:26:48.060Z,4.00
2017-09-09T04:29:16.296Z,3.30
2017-09-09T04:31:45.308Z,3.60
2017-09-09T04:34:13.540Z,3.27
2017-09-09T04:36:41.801Z,3.93
2017-09-09T04:39:10.062Z,3.30
2017-09-09T04:41:39.048Z,3.30
2017-09-09T04:44:07.268Z,3.13
2017-09-09T04:46:35.514Z,3.20
2017-09-09T04:49:03.741Z,3.47
2017-09-09T04:51:32.752Z,3.13
2017-09-09T04:54:00.985Z,3.20
2017-09-09T04:56:29.240Z,3.20
2017-09-09T04:58:57.462Z,4.37
2017-09-09T05:01:26.490Z,3.87
2017-09-09T05:03:54.720Z,3.27
2017-09-09T05:06:23.712Z,3.27
2017-09-09T05:08:51.957Z,3.20
2017-09-09T05:11:20.187Z,3.20
2017-09-09T05:13:48.429Z,3.07
2017-09-09T05:16:16.659Z,2.80
2017-09-09T05:18:44.904Z,2.80
2017-09-09T05:21:13.905Z,3.23
2017-09-09T05:23:42.913Z,3.10
2017-09-09T05:26:11.141Z,3.27
2017-09-09T05:28:39.376Z,2.83
2017-09-09T05:31:07.608Z,3.10
2017-09-09T05:33:36.632Z,3.23
2017-09-09T05:36:04.853Z,3.03
2017-09-09T05:38:33.100Z,2.80
2017-09-09T05:41:01.333Z,2.80
2017-09-09T05:43:30.361Z,3.30
2017-09-09T05:45:58.584Z,3.20
2017-09-09T05:48:26.876Z,3.43
2017-09-09T05:50:56.187Z,3.07
2017-09-09T05:53:24.425Z,2.80
2017-09-09T05:55:52.659Z,2.87
2017-09-09T05:58:20.905Z,3.30
2017-09-09T06:00:49.204Z,2.63
2017-09-09T06:03:17.534Z,3.30
2017-09-09T06:05:45.804Z,2.73
2017-09-09T06:08:14.042Z,2.50
2017-09-09T06:10:42.289Z,3.27
2017-09-09T06:13:11.277Z,3.03
2017-09-09T06:15:40.398Z,2.70
2017-09-09T06:18:08.758Z,3.20
2017-09-09T06:20:38.042Z,2.93
2017-09-09T06:23:07.333Z,3.40
2017-09-09T06:25:35.771Z,3.50
2017-09-09T06:28:04.032Z,2.50
2017-09-09T06:30:32.315Z,3.10
2017-09-09T06:33:00.589Z,2.93
2017-09-09T06:35:29.581Z,2.90
2017-09-09T06:37:57.819Z,2.83
2017-09-09T06:40:26.119Z,3.13
2017-09-09T06:42:54.375Z,2.80
2017-09-09T06:45:22.608Z,3.27
2017-09-09T06:47:50.848Z,3.47
2017-09-09T06:50:19.084Z,2.70
2017-09-09T06:52:47.325Z,3.60
2017-09-09T06:55:15.573Z,3.30
2017-09-09T06:57:43.804Z,2.87
2017-09-09T07:00:12.044Z,3.23
2017-09-09T07:02:40.275Z,3.50
2017-09-09T07:05:08.525Z,2.90
2017-09-09T07:07:36.741Z,2.80
2017-09-09T07:10:05.762Z,3.00
2017-09-09T07:12:33.990Z,3.20
2017-09-09T07:15:02.225Z,3.73
2017-09-09T07:17:30.485Z,3.60
2017-09-09T07:19:58.717Z,2.57
2017-09-09T07:22:26.971Z,3.10
2017-09-09T07:24:55.198Z,3.17
2017-09-09T07:27:23.450Z,3.00
2017-09-09T07:29:52.445Z,2.60
2017-09-09T07:32:21.460Z,2.90
2017-09-09T07:34:49.685Z,2.50
2017-09-09T07:37:17.929Z,2.50
2017-09-09T07:39:46.161Z,2.60
2017-09-09T07:42:15.440Z,2.97
2017-09-09T07:44:43.984Z,3.50
2017-09-09T07:47:12.275Z,2.33
2017-09-09T07:49:40.509Z,2.33
2017-09-09T07:52:09.598Z,2.90
2017-09-09T07:54:38.606Z,2.80
2017-09-09T07:57:06.883Z,2.90
2017-09-09T07:59:35.258Z,2.00
2017-09-09T08:02:04.293Z,1.67
2017-09-09T08:04:32.539Z,2.67
2017-09-09T08:07:00.818Z,2.50
2017-09-09T08:09:29.052Z,2.30
2017-09-09T08:11:57.305Z,2.00
2017-09-09T08:14:25.583Z,2.63
2017-09-09T08:16:53.908Z,2.40
2017-09-09T08:19:22.136Z,1.77
2017-09-09T08:21:50.364Z,1.73
2017-09-09T08:24:18.604Z,2.47
2017-09-09T08:26:46.833Z,1.77
2017-09-09T08:29:15.088Z,1.67
2017-09-09T08:31:43.326Z,2.50
2017-09-09T08:34:11.582Z,1.60
2017-09-09T08:36:39.812Z,1.50
2017-09-09T08:39:08.132Z,1.17
2017-09-09T08:41:36.362Z,1.13
2017-09-09T08:44:05.381Z,1.90
2017-09-09T08:46:33.604Z,1.73
2017-09-09T08:49:01.916Z,1.20
2017-09-09T08:51:30.143Z,1.10
2017-09-09T08:53:58.378Z,1.20
2017-09-09T08:56:26.608Z,1.80
2017-09-09T08:58:54.844Z,2.90
2017-09-09T09:01:23.068Z,1.13
2017-09-09T09:03:52.084Z,1.10
2017-09-09T09:06:20.308Z,1.10
2017-09-09T09:08:48.553Z,3.07
2017-09-09T09:11:16.789Z,1.83
2017-09-09T09:13:45.031Z,1.30
2017-09-09T09:16:13.269Z,1.50
2017-09-09T09:18:41.520Z,1.73
2017-09-09T09:21:10.508Z,1.07
2017-09-09T09:23:39.502Z,1.30
2017-09-09T09:26:07.737Z,1.10
2017-09-09T09:28:35.960Z,1.20
2017-09-09T09:31:04.205Z,1.07
2017-09-09T09:33:32.440Z,1.60
2017-09-09T09:36:00.728Z,1.03
2017-09-09T09:38:28.956Z,1.27
2017-09-09T09:40:57.211Z,1.40
2017-09-09T09:43:25.445Z,1.27
2017-09-09T09:45:53.699Z,1.10
2017-09-09T09:48:22.681Z,2.10
2017-09-09T09:50:50.924Z,1.20
2017-09-09T09:53:19.157Z,1.10
2017-09-09T09:55:47.408Z,1.40
2017-09-09T09:58:16.402Z,2.80
2017-09-09T10:00:45.401Z,1.43
2017-09-09T10:03:13.640Z,1.13
2017-09-09T10:05:41.888Z,1.23
2017-09-09T10:08:10.125Z,1.80
2017-09-09T10:10:39.152Z,1.90
2017-09-09T10:13:07.380Z,2.03
2017-09-09T10:15:36.405Z,2.07
2017-09-09T10:18:04.640Z,2.10
2017-09-09T10:20:32.880Z,2.20
2017-09-09T10:23:01.110Z,3.27
2017-09-09T10:25:29.926Z,2.80
2017-09-09T10:27:58.177Z,2.77
2017-09-09T10:30:27.167Z,2.80
2017-09-09T10:32:55.408Z,3.00
2017-09-09T10:35:23.645Z,3.70
2017-09-09T10:37:51.896Z,4.83
2017-09-09T10:40:20.885Z,2.87
2017-09-09T10:42:49.144Z,3.33
2017-09-09T10:45:17.401Z,3.93
2017-09-09T10:47:46.479Z,3.80
2017-09-09T10:50:14.704Z,2.90
2017-09-09T10:52:43.708Z,3.13
2017-09-09T10:55:12.730Z,2.33
2017-09-09T10:57:40.982Z,2.27
2017-09-09T11:00:09.211Z,2.50
2017-09-09T11:02:37.452Z,2.77
2017-09-09T11:05:05.693Z,2.57
2017-09-09T11:07:34.709Z,1.77
2017-09-09T11:10:02.940Z,1.63
2017-09-09T11:12:31.188Z,2.67
2017-09-09T11:14:59.409Z,1.40
2017-09-09T11:17:27.652Z,1.20
2017-09-09T11:19:55.885Z,1.30
2017-09-09T11:22:24.980Z,1.20
2017-09-09T11:24:53.211Z,1.63
2017-09-09T11:27:21.493Z,2.73
2017-09-09T11:29:49.714Z,2.67
2017-09-09T11:32:17.941Z,1.53
2017-09-09T11:34:46.193Z,2.47
2017-09-09T11:37:14.419Z,2.73
2017-09-09T11:39:42.662Z,1.60
2017-09-09T11:42:10.895Z,2.33
2017-09-09T11:44:39.140Z,2.00
2017-09-09T11:47:08.157Z,1.80
2017-09-09T11:49:36.374Z,1.70
2017-09-09T11:52:04.603Z,2.40
2017-09-09T11:54:32.860Z,2.00
2017-09-09T11:57:01.084Z,2.10
2017-09-09T11:59:29.330Z,2.63
2017-09-09T12:01:57.556Z,2.60
2017-09-09T12:04:25.805Z,2.17
2017-09-09T12:06:54.051Z,2.33
2017-09-09T12:09:22.291Z,2.20
2017-09-09T12:11:55.378Z,2.20
2017-09-09T12:14:23.603Z,2.30
2017-09-09T12:16:51.859Z,3.10
2017-09-09T12:19:20.856Z,3.90
2017-09-09T12:21:49.081Z,3.20
2017-09-09T12:24:17.330Z,2.97
2017-09-09T12:26:45.566Z,2.60
2017-09-09T12:29:14.570Z,4.00
2017-09-09T12:31:42.803Z,3.20
2017-09-09T12:34:11.068Z,2.40
2017-09-09T12:36:39.291Z,2.40
2017-09-09T12:39:08.283Z,2.07
2017-09-09T12:41:37.292Z,2.20
2017-09-09T12:44:05.526Z,2.60
2017-09-09T12:46:34.768Z,2.20
2017-09-09T12:49:03.005Z,2.30
2017-09-09T12:51:31.296Z,2.07
2017-09-09T12:54:00.329Z,2.00
2017-09-09T12:56:28.565Z,2.47
2017-09-09T12:58:57.573Z,2.30
2017-09-09T13:01:25.820Z,2.10
2017-09-09T13:03:54.058Z,3.60
2017-09-09T13:06:22.305Z,3.00
2017-09-09T13:08:50.527Z,1.87
2017-09-09T13:11:18.777Z,3.50
2017-09-09T13:13:47.012Z,3.40
2017-09-09T13:16:16.031Z,4.17
2017-09-09T13:18:44.254Z,1.90
2017-09-09T13:21:12.508Z,2.03
2017-09-09T13:23:40.749Z,2.53
2017-09-09T13:26:08.988Z,1.77
2017-09-09T13:28:37.246Z,1.90
2017-09-09T13:31:05.469Z,1.70
2017-09-09T13:33:33.706Z,1.63
2017-09-09T13:36:01.965Z,1.70
2017-09-09T13:38:30.192Z,1.83
2017-09-09T13:40:58.557Z,1.40
2017-09-09T13:43:27.545Z,1.97
2017-09-09T13:45:56.568Z,2.47
2017-09-09T13:48:24.816Z,1.70
2017-09-09T13:50:53.829Z,1.83
2017-09-09T13:53:22.136Z,1.90
2017-09-09T13:55:50.357Z,1.50
2017-09-09T13:58:19.373Z,2.57
2017-09-09T14:00:48.391Z,1.63
2017-09-09T14:03:16.640Z,2.27
2017-09-09T14:05:45.629Z,1.90
2017-09-09T14:08:14.634Z,3.90
2017-09-09T14:10:42.855Z,3.70
2017-09-09T14:13:11.109Z,1.87
2017-09-09T14:15:39.336Z,2.00
2017-09-09T14:18:07.581Z,2.03
2017-09-09T14:20:35.812Z,2.50
2017-09-09T14:23:04.060Z,1.73
2017-09-09T14:25:32.282Z,1.60
2017-09-09T14:28:00.561Z,1.70
2017-09-09T14:30:28.792Z,2.20
2017-09-09T14:32:57.041Z,1.70
2017-09-09T14:35:25.266Z,2.00
2017-09-09T14:37:53.505Z,1.80
2017-09-09T14:40:21.732Z,1.80
2017-09-09T14:42:49.969Z,1.83
2017-09-09T14:45:18.966Z,1.63
2017-09-09T14:47:47.990Z,1.57
2017-09-09T14:50:16.221Z,4.50
2017-09-09T14:52:45.231Z,3.20
2017-09-09T14:55:14.231Z,2.37
2017-09-09T14:57:42.455Z,1.77
2017-09-09T15:00:10.702Z,1.60
2017-09-09T15:02:38.962Z,2.13
2017-09-09T15:05:07.304Z,3.57
2017-09-09T15:07:35.554Z,2.00
2017-09-09T15:10:03.767Z,1.87
2017-09-09T15:12:32.807Z,2.47
2017-09-09T15:15:01.052Z,2.00
2017-09-09T15:17:29.277Z,1.80
2017-09-09T15:19:57.512Z,1.80
2017-09-09T15:22:25.778Z,1.40
2017-09-09T15:24:54.018Z,1.63
2017-09-09T15:27:22.241Z,2.30
2017-09-09T15:29:50.492Z,1.77
2017-09-09T15:32:19.492Z,1.63
2017-09-09T15:34:48.495Z,1.43
2017-09-09T15:37:16.729Z,2.67
2017-09-09T15:39:44.968Z,2.20
2017-09-09T15:42:13.193Z,2.27
2017-09-09T15:44:41.436Z,1.73
2017-09-09T15:47:10.428Z,1.93
2017-09-09T15:49:38.674Z,1.80
2017-09-09T15:52:06.905Z,2.63
2017-09-09T15:54:35.162Z,1.90
2017-09-09T15:57:03.409Z,2.00
2017-09-09T15:59:31.686Z,1.80
2017-09-09T16:01:59.909Z,2.10
2017-09-09T16:04:28.133Z,2.10
2017-09-09T16:06:56.377Z,1.83
2017-09-09T16:09:24.601Z,2.97
2017-09-09T16:11:52.850Z,2.80
2017-09-09T16:14:21.864Z,2.40
2017-09-09T16:16:50.109Z,2.00
2017-09-09T16:19:19.105Z,2.30
2017-09-09T16:21:47.361Z,1.40
2017-09-09T16:24:15.596Z,1.37
2017-09-09T16:26:43.829Z,1.50
2017-09-09T16:29:12.058Z,1.63
2017-09-09T16:31:40.297Z,1.07
2017-09-09T16:34:08.528Z,2.77
2017-09-09T16:36:36.773Z,1.10
2017-09-09T16:39:05.004Z,1.27
2017-09-09T16:41:33.253Z,1.07
2017-09-09T16:44:01.480Z,1.07
2017-09-09T16:46:29.720Z,1.10
2017-09-09T16:48:58.720Z,1.10
2017-09-09T16:51:26.966Z,0.87
2017-09-09T16:53:55.197Z,1.70
2017-09-09T16:56:23.437Z,1.03
2017-09-09T16:58:52.425Z,1.00
2017-09-09T17:01:20.673Z,1.30
2017-09-09T17:03:48.902Z,1.17
2017-09-09T17:06:17.129Z,1.17
2017-09-09T17:08:45.381Z,1.23
2017-09-09T17:11:13.605Z,1.70
2017-09-09T17:13:42.624Z,0.90
2017-09-09T17:16:10.868Z,1.40
2017-09-09T17:18:39.105Z,1.20
2017-09-09T17:21:07.333Z,1.30
2017-09-09T17:23:36.336Z,1.17
2017-09-09T17:26:04.561Z,1.10
2017-09-09T17:28:32.806Z,0.90
2017-09-09T17:31:01.043Z,1.03
2017-09-09T17:33:29.281Z,1.40
2017-09-09T17:35:57.589Z,1.20
2017-09-09T17:38:25.829Z,0.97
2017-09-09T17:40:54.048Z,1.20
2017-09-09T17:43:23.060Z,0.90
2017-09-09T17:45:51.289Z,1.10
2017-09-09T17:48:19.523Z,1.00
2017-09-09T17:50:47.748Z,1.13
2017-09-09T17:53:15.987Z,1.00
2017-09-09T17:55:44.224Z,1.30
2017-09-09T17:58:12.472Z,1.70
2017-09-09T18:00:40.700Z,1.30
2017-09-09T18:03:08.928Z,1.30
2017-09-09T18:05:37.180Z,1.40
2017-09-09T18:08:05.404Z,1.37
2017-09-09T18:10:33.659Z,1.57
2017-09-09T18:13:01.901Z,1.33
2017-09-09T18:15:30.184Z,1.87
2017-09-09T18:17:58.412Z,4.77
2017-09-09T18:20:26.652Z,3.60
2017-09-09T18:22:54.884Z,1.93
2017-09-09T18:25:23.129Z,2.60
2017-09-09T18:27:51.360Z,2.13
2017-09-09T18:30:19.613Z,2.67
2017-09-09T18:32:47.839Z,3.60
2017-09-09T18:35:16.081Z,3.07
2017-09-09T18:37:44.317Z,1.70
2017-09-09T18:40:12.556Z,3.87
2017-09-09T18:42:40.781Z,2.10
2017-09-09T18:45:09.020Z,3.03
2017-09-09T18:47:38.018Z,2.20
2017-09-09T18:50:07.028Z,2.13
2017-09-09T18:52:35.254Z,1.90
2017-09-09T18:55:03.526Z,1.70
2017-09-09T18:57:31.759Z,2.80
2017-09-09T18:59:59.997Z,2.07
2017-09-09T19:02:28.224Z,1.40
2017-09-09T19:04:56.491Z,1.73
2017-09-09T19:07:24.713Z,2.03
2017-09-09T19:09:52.939Z,1.40
2017-09-09T19:12:21.184Z,2.43
2017-09-09T19:14:50.172Z,3.20
2017-09-09T19:17:19.743Z,8.07
2017-09-09T19:19:47.969Z,2.50
2017-09-09T19:22:16.207Z,3.43
2017-09-09T19:24:44.439Z,2.23
2017-09-09T19:27:12.729Z,3.10
2017-09-09T19:29:40.953Z,3.20
2017-09-09T19:32:09.197Z,1.97
2017-09-09T19:34:37.424Z,2.13
2017-09-09T19:37:06.437Z,2.63
2017-09-09T19:39:35.550Z,9.57
2017-09-09T19:42:03.830Z,5.30
2017-09-09T19:44:32.045Z,2.40
2017-09-09T19:47:00.292Z,2.40
2017-09-09T19:49:28.518Z,4.50
2017-09-09T19:51:56.768Z,3.80
2017-09-09T19:54:25.013Z,3.97
2017-09-09T19:56:53.248Z,4.47
2017-09-09T19:59:21.485Z,4.50
2017-09-09T20:01:49.746Z,5.00
2017-09-09T20:04:17.983Z,4.93
2017-09-09T20:06:46.237Z,8.30
2017-09-09T20:09:14.467Z,5.17
2017-09-09T20:11:42.689Z,5.60
2017-09-09T20:14:11.724Z,4.53
2017-09-09T20:16:39.950Z,4.40
2017-09-09T20:19:08.972Z,3.87
2017-09-09T20:21:37.189Z,3.50
2017-09-09T20:24:05.434Z,3.60
2017-09-09T20:26:33.657Z,3.90
2017-09-09T20:29:01.901Z,2.80
2017-09-09T20:31:30.128Z,2.70
2017-09-09T20:33:58.373Z,2.13
2017-09-09T20:36:26.612Z,1.60
2017-09-09T20:38:54.879Z,1.67
2017-09-09T20:41:23.100Z,3.03
2017-09-09T20:43:51.366Z,1.67
2017-09-09T20:46:19.645Z,1.90
2017-09-09T20:48:47.902Z,2.10
2017-09-09T20:51:16.123Z,1.60
2017-09-09T20:53:44.394Z,6.23
2017-09-09T20:56:12.617Z,3.50
2017-09-09T20:58:40.861Z,2.47
2017-09-09T21:01:09.861Z,3.33
2017-09-09T21:03:38.876Z,2.90
2017-09-09T21:06:07.104Z,2.53
2017-09-09T21:08:35.347Z,3.30
2017-09-09T21:11:03.577Z,3.20
2017-09-09T21:13:32.568Z,2.20
2017-09-09T21:16:00.834Z,1.47
2017-09-09T21:18:29.053Z,3.50
2017-09-09T21:20:57.296Z,1.97
2017-09-09T21:23:26.291Z,3.33
2017-09-09T21:25:55.313Z,0.93
2017-09-09T21:28:23.549Z,1.23
2017-09-09T21:30:52.558Z,1.40
2017-09-09T21:33:20.785Z,1.10
2017-09-09T21:35:49.032Z,0.70
2017-09-09T21:38:17.260Z,0.90
2017-09-09T21:40:45.537Z,0.70
2017-09-09T21:43:13.801Z,0.90
2017-09-09T21:45:42.052Z,1.20
2017-09-09T21:48:10.284Z,1.70
2017-09-09T21:50:38.524Z,1.80
2017-09-09T21:53:06.759Z,1.20
2017-09-09T21:55:35.011Z,1.93
2017-09-09T21:58:04.000Z,1.40
2017-09-09T22:00:33.016Z,1.50
2017-09-09T22:03:01.753Z,1.30
2017-09-09T22:05:29.997Z,1.43
2017-09-09T22:07:58.229Z,1.20
2017-09-09T22:10:27.241Z,1.27
2017-09-09T22:12:55.493Z,1.53
2017-09-09T22:15:24.506Z,2.07
2017-09-09T22:17:52.741Z,3.40
2017-09-09T22:20:20.969Z,4.27
2017-09-09T22:22:49.203Z,3.73
2017-09-09T22:25:18.200Z,3.10
2017-09-09T22:27:46.449Z,2.83
2017-09-09T22:30:14.677Z,2.07
2017-09-09T22:32:42.919Z,1.83
2017-09-09T22:35:11.150Z,1.53
2017-09-09T22:37:39.400Z,1.73
2017-09-09T22:40:08.262Z,1.63
2017-09-09T22:42:36.504Z,1.67
2017-09-09T22:45:04.726Z,1.70
2017-09-09T22:47:33.735Z,1.70
2017-09-09T22:50:01.966Z,2.17
2017-09-09T22:52:30.200Z,2.50
2017-09-09T22:54:58.429Z,2.60
2017-09-09T22:57:26.669Z,1.60
2017-09-09T22:59:54.893Z,1.70
2017-09-09T23:02:23.141Z,2.30
2017-09-09T23:04:51.359Z,2.43
2017-09-09T23:07:19.610Z,6.57
2017-09-09T23:09:47.847Z,6.70
2017-09-09T23:12:16.081Z,9.47
2017-09-09T23:14:44.308Z,4.67
2017-09-09T23:17:12.548Z,2.20
2017-09-09T23:19:40.777Z,2.10
2017-09-09T23:22:09.005Z,1.73
2017-09-09T23:24:37.257Z,1.90
2017-09-09T23:27:05.486Z,2.83
2017-09-09T23:29:33.728Z,5.10
2017-09-09T23:32:01.955Z,7.77
2017-09-09T23:34:30.204Z,7.40
2017-09-09T23:36:58.438Z,3.73
2017-09-09T23:39:26.678Z,5.17
2017-09-09T23:41:55.864Z,5.13
2017-09-09T23:44:24.126Z,4.57
2017-09-09T23:46:52.364Z,2.93
2017-09-09T23:49:20.609Z,3.83
2017-09-09T23:51:48.845Z,1.50
2017-09-09T23:54:17.089Z,2.30
2017-09-09T23:56:45.316Z,1.73
2017-09-09T23:59:13.560Z,2.03
